sensor_id;sensor_type;location;lat;lon;timestamp;temperature;humidity
41533;DHT22;27262;-35.248;149.138;2022-10-01T00:02:14;19.70;61.30
41533;DHT22;27262;-35.248;149.138;2022-10-01T00:04:44;19.70;61.40
41533;DHT22;27262;-35.248;149.138;2022-10-01T00:07:15;19.70;61.70
41533;DHT22;27262;-35.248;149.138;2022-10-01T00:09:46;19.70;61.60
41533;DHT22;27262;-35.248;149.138;2022-10-01T00:12:17;19.70;61.70
41533;DHT22;27262;-35.248;149.138;2022-10-01T00:14:47;19.70;61.70
41533;DHT22;27262;-35.248;149.138;2022-10-01T00:17:17;19.70;61.70
41533;DHT22;27262;-35.248;149.138;2022-10-01T00:19:48;19.70;61.70
41533;DHT22;27262;-35.248;149.138;2022-10-01T00:22:18;19.70;61.70
41533;DHT22;27262;-35.248;149.138;2022-10-01T00:24:49;19.70;61.70
41533;DHT22;27262;-35.248;149.138;2022-10-01T00:27:19;19.70;61.60
41533;DHT22;27262;-35.248;149.138;2022-10-01T00:29:49;19.70;61.80
41533;DHT22;27262;-35.248;149.138;2022-10-01T00:32:23;19.80;61.80
41533;DHT22;27262;-35.248;149.138;2022-10-01T00:34:53;19.80;61.90
41533;DHT22;27262;-35.248;149.138;2022-10-01T00:37:23;19.80;62.00
41533;DHT22;27262;-35.248;149.138;2022-10-01T00:39:54;19.80;62.10
41533;DHT22;27262;-35.248;149.138;2022-10-01T00:42:25;19.80;62.20
41533;DHT22;27262;-35.248;149.138;2022-10-01T00:44:56;19.80;62.20
41533;DHT22;27262;-35.248;149.138;2022-10-01T00:50:33;19.90;62.30
41533;DHT22;27262;-35.248;149.138;2022-10-01T00:53:09;19.90;62.20
41533;DHT22;27262;-35.248;149.138;2022-10-01T00:55:47;19.90;62.20
41533;DHT22;27262;-35.248;149.138;2022-10-01T00:58:21;19.90;62.10
41533;DHT22;27262;-35.248;149.138;2022-10-01T01:00:54;19.90;62.00
41533;DHT22;27262;-35.248;149.138;2022-10-01T01:03:26;20.00;62.00
41533;DHT22;27262;-35.248;149.138;2022-10-01T01:05:56;20.00;61.90
41533;DHT22;27262;-35.248;149.138;2022-10-01T01:08:27;20.00;61.90
41533;DHT22;27262;-35.248;149.138;2022-10-01T01:11:32;20.00;61.70
41533;DHT22;27262;-35.248;149.138;2022-10-01T01:14:40;20.00;61.50
41533;DHT22;27262;-35.248;149.138;2022-10-01T01:17:23;20.00;61.30
41533;DHT22;27262;-35.248;149.138;2022-10-01T01:25:46;20.10;61.30
41533;DHT22;27262;-35.248;149.138;2022-10-01T01:28:22;20.10;61.40
41533;DHT22;27262;-35.248;149.138;2022-10-01T01:30:54;20.10;61.30
41533;DHT22;27262;-35.248;149.138;2022-10-01T01:33:29;20.10;61.30
41533;DHT22;27262;-35.248;149.138;2022-10-01T01:36:19;20.10;61.30
41533;DHT22;27262;-35.248;149.138;2022-10-01T01:38:56;20.20;61.00
41533;DHT22;27262;-35.248;149.138;2022-10-01T01:41:30;20.10;61.00
41533;DHT22;27262;-35.248;149.138;2022-10-01T01:44:06;20.20;61.00
41533;DHT22;27262;-35.248;149.138;2022-10-01T01:46:40;20.20;60.90
41533;DHT22;27262;-35.248;149.138;2022-10-01T01:49:13;20.20;60.80
41533;DHT22;27262;-35.248;149.138;2022-10-01T01:52:09;20.20;60.90
41533;DHT22;27262;-35.248;149.138;2022-10-01T01:54:44;20.20;60.90
41533;DHT22;27262;-35.248;149.138;2022-10-01T01:57:18;20.20;60.90
41533;DHT22;27262;-35.248;149.138;2022-10-01T01:59:49;20.20;60.70
41533;DHT22;27262;-35.248;149.138;2022-10-01T02:02:25;20.20;60.60
41533;DHT22;27262;-35.248;149.138;2022-10-01T02:05:00;20.20;60.50
41533;DHT22;27262;-35.248;149.138;2022-10-01T02:10:59;20.20;60.40
41533;DHT22;27262;-35.248;149.138;2022-10-01T02:19:20;20.30;60.70
41533;DHT22;27262;-35.248;149.138;2022-10-01T02:22:00;20.30;60.70
41533;DHT22;27262;-35.248;149.138;2022-10-01T02:24:42;20.30;60.60
41533;DHT22;27262;-35.248;149.138;2022-10-01T02:27:24;20.30;60.60
41533;DHT22;27262;-35.248;149.138;2022-10-01T02:29:58;20.30;60.50
41533;DHT22;27262;-35.248;149.138;2022-10-01T02:32:31;20.40;60.50
41533;DHT22;27262;-35.248;149.138;2022-10-01T02:35:03;20.40;60.60
41533;DHT22;27262;-35.248;149.138;2022-10-01T02:37:35;20.40;61.60
41533;DHT22;27262;-35.248;149.138;2022-10-01T02:40:10;20.40;60.90
41533;DHT22;27262;-35.248;149.138;2022-10-01T02:42:47;20.40;60.80
41533;DHT22;27262;-35.248;149.138;2022-10-01T02:45:21;20.40;60.90
41533;DHT22;27262;-35.248;149.138;2022-10-01T02:48:01;20.40;60.70
41533;DHT22;27262;-35.248;149.138;2022-10-01T02:50:54;20.40;60.80
41533;DHT22;27262;-35.248;149.138;2022-10-01T02:53:39;20.40;60.80
41533;DHT22;27262;-35.248;149.138;2022-10-01T02:56:11;20.40;60.90
41533;DHT22;27262;-35.248;149.138;2022-10-01T02:58:43;20.50;60.90
41533;DHT22;27262;-35.248;149.138;2022-10-01T03:01:13;20.50;60.90
41533;DHT22;27262;-35.248;149.138;2022-10-01T03:03:43;20.50;60.80
41533;DHT22;27262;-35.248;149.138;2022-10-01T03:06:13;20.50;60.80
41533;DHT22;27262;-35.248;149.138;2022-10-01T03:08:44;20.50;60.80
41533;DHT22;27262;-35.248;149.138;2022-10-01T03:11:14;20.50;60.70
41533;DHT22;27262;-35.248;149.138;2022-10-01T03:13:44;20.50;60.60
41533;DHT22;27262;-35.248;149.138;2022-10-01T03:16:14;20.50;60.60
41533;DHT22;27262;-35.248;149.138;2022-10-01T03:18:45;20.50;60.60
41533;DHT22;27262;-35.248;149.138;2022-10-01T03:21:15;20.60;60.50
41533;DHT22;27262;-35.248;149.138;2022-10-01T03:23:45;20.60;60.40
41533;DHT22;27262;-35.248;149.138;2022-10-01T03:26:15;20.60;60.30
41533;DHT22;27262;-35.248;149.138;2022-10-01T03:28:45;20.60;60.30
41533;DHT22;27262;-35.248;149.138;2022-10-01T03:31:15;20.60;60.20
41533;DHT22;27262;-35.248;149.138;2022-10-01T03:33:46;20.60;60.00
41533;DHT22;27262;-35.248;149.138;2022-10-01T03:36:16;20.60;60.00
41533;DHT22;27262;-35.248;149.138;2022-10-01T03:38:46;20.60;60.00
41533;DHT22;27262;-35.248;149.138;2022-10-01T03:41:16;20.60;60.00
41533;DHT22;27262;-35.248;149.138;2022-10-01T03:43:46;20.70;60.10
41533;DHT22;27262;-35.248;149.138;2022-10-01T03:46:17;20.60;60.10
41533;DHT22;27262;-35.248;149.138;2022-10-01T03:48:47;20.60;60.00
41533;DHT22;27262;-35.248;149.138;2022-10-01T03:51:18;20.60;60.00
41533;DHT22;27262;-35.248;149.138;2022-10-01T03:53:49;20.60;60.10
41533;DHT22;27262;-35.248;149.138;2022-10-01T03:56:19;20.60;60.10
41533;DHT22;27262;-35.248;149.138;2022-10-01T03:58:49;20.60;60.10
41533;DHT22;27262;-35.248;149.138;2022-10-01T04:01:20;20.60;60.10
41533;DHT22;27262;-35.248;149.138;2022-10-01T04:03:50;20.60;60.00
41533;DHT22;27262;-35.248;149.138;2022-10-01T04:06:21;20.60;60.10
41533;DHT22;27262;-35.248;149.138;2022-10-01T04:08:51;20.60;60.00
41533;DHT22;27262;-35.248;149.138;2022-10-01T04:11:21;20.60;60.00
41533;DHT22;27262;-35.248;149.138;2022-10-01T04:13:52;20.60;60.00
41533;DHT22;27262;-35.248;149.138;2022-10-01T04:16:24;20.60;59.90
41533;DHT22;27262;-35.248;149.138;2022-10-01T04:18:54;20.60;60.00
41533;DHT22;27262;-35.248;149.138;2022-10-01T04:21:24;20.60;60.00
41533;DHT22;27262;-35.248;149.138;2022-10-01T04:23:54;20.60;60.00
41533;DHT22;27262;-35.248;149.138;2022-10-01T04:26:24;20.60;60.00
41533;DHT22;27262;-35.248;149.138;2022-10-01T04:28:55;20.60;60.00
41533;DHT22;27262;-35.248;149.138;2022-10-01T04:31:25;20.60;60.10
41533;DHT22;27262;-35.248;149.138;2022-10-01T04:33:56;20.60;60.00
41533;DHT22;27262;-35.248;149.138;2022-10-01T04:36:27;20.60;60.00
41533;DHT22;27262;-35.248;149.138;2022-10-01T04:38:57;20.60;60.00
41533;DHT22;27262;-35.248;149.138;2022-10-01T04:41:30;20.60;60.00
41533;DHT22;27262;-35.248;149.138;2022-10-01T04:44:01;20.60;60.10
41533;DHT22;27262;-35.248;149.138;2022-10-01T04:46:32;20.60;60.00
41533;DHT22;27262;-35.248;149.138;2022-10-01T04:49:02;20.60;60.00
41533;DHT22;27262;-35.248;149.138;2022-10-01T04:51:32;20.60;60.10
41533;DHT22;27262;-35.248;149.138;2022-10-01T04:54:03;20.60;60.20
41533;DHT22;27262;-35.248;149.138;2022-10-01T04:56:33;20.60;60.20
41533;DHT22;27262;-35.248;149.138;2022-10-01T04:59:03;20.60;60.10
41533;DHT22;27262;-35.248;149.138;2022-10-01T05:01:33;20.60;60.10
41533;DHT22;27262;-35.248;149.138;2022-10-01T05:04:04;20.60;60.10
41533;DHT22;27262;-35.248;149.138;2022-10-01T05:06:34;20.60;60.10
41533;DHT22;27262;-35.248;149.138;2022-10-01T05:09:05;20.60;60.10
41533;DHT22;27262;-35.248;149.138;2022-10-01T05:11:35;20.60;60.10
41533;DHT22;27262;-35.248;149.138;2022-10-01T05:14:07;20.60;60.00
41533;DHT22;27262;-35.248;149.138;2022-10-01T05:16:37;20.60;60.10
41533;DHT22;27262;-35.248;149.138;2022-10-01T05:19:07;20.60;60.00
41533;DHT22;27262;-35.248;149.138;2022-10-01T05:21:38;20.60;60.10
41533;DHT22;27262;-35.248;149.138;2022-10-01T05:24:08;20.60;60.20
41533;DHT22;27262;-35.248;149.138;2022-10-01T05:26:38;20.60;60.10
41533;DHT22;27262;-35.248;149.138;2022-10-01T05:29:08;20.60;60.10
41533;DHT22;27262;-35.248;149.138;2022-10-01T05:31:39;20.60;60.10
41533;DHT22;27262;-35.248;149.138;2022-10-01T05:34:12;20.60;60.20
41533;DHT22;27262;-35.248;149.138;2022-10-01T05:36:42;20.60;60.10
41533;DHT22;27262;-35.248;149.138;2022-10-01T05:39:13;20.60;60.10
41533;DHT22;27262;-35.248;149.138;2022-10-01T05:41:43;20.60;60.10
41533;DHT22;27262;-35.248;149.138;2022-10-01T05:44:13;20.60;60.20
41533;DHT22;27262;-35.248;149.138;2022-10-01T05:46:43;20.60;60.10
41533;DHT22;27262;-35.248;149.138;2022-10-01T05:49:13;20.60;60.10
41533;DHT22;27262;-35.248;149.138;2022-10-01T05:51:44;20.60;60.10
41533;DHT22;27262;-35.248;149.138;2022-10-01T05:54:14;20.60;60.20
41533;DHT22;27262;-35.248;149.138;2022-10-01T05:56:48;20.60;60.10
41533;DHT22;27262;-35.248;149.138;2022-10-01T05:59:18;20.60;60.00
41533;DHT22;27262;-35.248;149.138;2022-10-01T06:01:49;20.60;60.10
41533;DHT22;27262;-35.248;149.138;2022-10-01T06:04:20;20.60;60.20
41533;DHT22;27262;-35.248;149.138;2022-10-01T06:06:50;20.60;60.10
41533;DHT22;27262;-35.248;149.138;2022-10-01T06:09:21;20.60;60.00
41533;DHT22;27262;-35.248;149.138;2022-10-01T06:11:52;20.60;60.00
41533;DHT22;27262;-35.248;149.138;2022-10-01T06:14:22;20.60;60.10
41533;DHT22;27262;-35.248;149.138;2022-10-01T06:16:53;20.60;60.00
41533;DHT22;27262;-35.248;149.138;2022-10-01T06:19:23;20.50;59.80
41533;DHT22;27262;-35.248;149.138;2022-10-01T06:21:53;20.50;60.00
41533;DHT22;27262;-35.248;149.138;2022-10-01T06:24:23;20.50;60.00
41533;DHT22;27262;-35.248;149.138;2022-10-01T06:26:54;20.60;60.00
41533;DHT22;27262;-35.248;149.138;2022-10-01T06:29:24;20.50;59.90
41533;DHT22;27262;-35.248;149.138;2022-10-01T06:31:54;20.50;60.00
41533;DHT22;27262;-35.248;149.138;2022-10-01T06:34:25;20.50;60.00
41533;DHT22;27262;-35.248;149.138;2022-10-01T06:36:55;20.50;60.00
41533;DHT22;27262;-35.248;149.138;2022-10-01T06:39:25;20.50;60.00
41533;DHT22;27262;-35.248;149.138;2022-10-01T06:41:55;20.50;60.00
41533;DHT22;27262;-35.248;149.138;2022-10-01T06:44:25;20.50;60.00
41533;DHT22;27262;-35.248;149.138;2022-10-01T06:46:56;20.50;59.90
41533;DHT22;27262;-35.248;149.138;2022-10-01T06:49:26;20.50;60.00
41533;DHT22;27262;-35.248;149.138;2022-10-01T06:51:56;20.50;60.00
41533;DHT22;27262;-35.248;149.138;2022-10-01T06:54:44;20.50;60.00
41533;DHT22;27262;-35.248;149.138;2022-10-01T06:57:14;20.50;60.00
41533;DHT22;27262;-35.248;149.138;2022-10-01T06:59:45;20.50;60.00
41533;DHT22;27262;-35.248;149.138;2022-10-01T07:02:29;20.50;60.10
41533;DHT22;27262;-35.248;149.138;2022-10-01T07:05:00;20.50;60.00
41533;DHT22;27262;-35.248;149.138;2022-10-01T07:07:32;20.50;60.10
41533;DHT22;27262;-35.248;149.138;2022-10-01T07:10:06;20.50;60.10
41533;DHT22;27262;-35.248;149.138;2022-10-01T07:12:37;20.50;60.00
41533;DHT22;27262;-35.248;149.138;2022-10-01T07:15:08;20.50;60.10
41533;DHT22;27262;-35.248;149.138;2022-10-01T07:17:44;20.50;60.00
41533;DHT22;27262;-35.248;149.138;2022-10-01T07:20:16;20.50;60.10
41533;DHT22;27262;-35.248;149.138;2022-10-01T07:22:48;20.50;60.00
41533;DHT22;27262;-35.248;149.138;2022-10-01T07:25:18;20.50;60.10
41533;DHT22;27262;-35.248;149.138;2022-10-01T07:27:48;20.40;60.10
41533;DHT22;27262;-35.248;149.138;2022-10-01T07:30:19;20.40;60.00
41533;DHT22;27262;-35.248;149.138;2022-10-01T07:32:49;20.50;60.10
41533;DHT22;27262;-35.248;149.138;2022-10-01T07:35:20;20.40;60.10
41533;DHT22;27262;-35.248;149.138;2022-10-01T07:37:51;20.40;60.10
41533;DHT22;27262;-35.248;149.138;2022-10-01T07:40:23;20.40;60.20
41533;DHT22;27262;-35.248;149.138;2022-10-01T07:42:56;20.40;60.20
41533;DHT22;27262;-35.248;149.138;2022-10-01T07:45:27;20.50;60.20
41533;DHT22;27262;-35.248;149.138;2022-10-01T07:47:59;20.50;60.20
41533;DHT22;27262;-35.248;149.138;2022-10-01T07:50:30;20.50;60.10
41533;DHT22;27262;-35.248;149.138;2022-10-01T07:53:01;20.50;60.20
41533;DHT22;27262;-35.248;149.138;2022-10-01T07:55:32;20.50;60.10
41533;DHT22;27262;-35.248;149.138;2022-10-01T07:58:03;20.60;60.20
41533;DHT22;27262;-35.248;149.138;2022-10-01T08:00:34;20.60;60.20
41533;DHT22;27262;-35.248;149.138;2022-10-01T08:03:05;20.60;60.20
41533;DHT22;27262;-35.248;149.138;2022-10-01T08:05:35;20.60;61.00
41533;DHT22;27262;-35.248;149.138;2022-10-01T08:08:07;20.60;60.30
41533;DHT22;27262;-35.248;149.138;2022-10-01T08:10:38;20.60;60.20
41533;DHT22;27262;-35.248;149.138;2022-10-01T08:13:12;20.60;60.30
41533;DHT22;27262;-35.248;149.138;2022-10-01T08:15:47;20.60;60.30
41533;DHT22;27262;-35.248;149.138;2022-10-01T08:18:22;20.70;60.40
41533;DHT22;27262;-35.248;149.138;2022-10-01T08:20:52;20.60;60.30
41533;DHT22;27262;-35.248;149.138;2022-10-01T08:23:23;20.60;60.30
41533;DHT22;27262;-35.248;149.138;2022-10-01T08:26:07;20.70;60.40
41533;DHT22;27262;-35.248;149.138;2022-10-01T08:28:37;20.70;60.30
41533;DHT22;27262;-35.248;149.138;2022-10-01T08:31:08;20.70;60.40
41533;DHT22;27262;-35.248;149.138;2022-10-01T08:33:38;20.70;60.40
41533;DHT22;27262;-35.248;149.138;2022-10-01T08:36:09;20.70;60.30
41533;DHT22;27262;-35.248;149.138;2022-10-01T08:38:40;20.70;60.40
41533;DHT22;27262;-35.248;149.138;2022-10-01T08:44:05;20.70;60.40
41533;DHT22;27262;-35.248;149.138;2022-10-01T08:46:36;20.70;60.60
41533;DHT22;27262;-35.248;149.138;2022-10-01T08:51:51;20.70;60.60
41533;DHT22;27262;-35.248;149.138;2022-10-01T08:57:01;20.70;60.70
41533;DHT22;27262;-35.248;149.138;2022-10-01T08:59:42;20.70;60.70
41533;DHT22;27262;-35.248;149.138;2022-10-01T09:04:57;20.70;61.00
41533;DHT22;27262;-35.248;149.138;2022-10-01T09:07:48;20.70;61.10
41533;DHT22;27262;-35.248;149.138;2022-10-01T09:11:13;20.70;61.40
41533;DHT22;27262;-35.248;149.138;2022-10-01T09:16:24;20.70;62.00
41533;DHT22;27262;-35.248;149.138;2022-10-01T09:21:59;20.70;62.40
41533;DHT22;27262;-35.248;149.138;2022-10-01T09:24:44;20.70;62.20
41533;DHT22;27262;-35.248;149.138;2022-10-01T09:27:24;20.70;62.60
41533;DHT22;27262;-35.248;149.138;2022-10-01T09:30:05;20.70;62.30
41533;DHT22;27262;-35.248;149.138;2022-10-01T09:32:50;20.70;62.30
41533;DHT22;27262;-35.248;149.138;2022-10-01T09:36:00;20.70;62.20
41533;DHT22;27262;-35.248;149.138;2022-10-01T09:38:52;20.70;62.30
41533;DHT22;27262;-35.248;149.138;2022-10-01T09:41:27;20.70;62.80
41533;DHT22;27262;-35.248;149.138;2022-10-01T09:44:00;20.70;62.50
41533;DHT22;27262;-35.248;149.138;2022-10-01T09:46:31;20.70;62.60
41533;DHT22;27262;-35.248;149.138;2022-10-01T09:49:50;20.70;62.50
41533;DHT22;27262;-35.248;149.138;2022-10-01T09:55:02;20.70;62.40
41533;DHT22;27262;-35.248;149.138;2022-10-01T09:57:38;20.70;62.20
41533;DHT22;27262;-35.248;149.138;2022-10-01T10:00:17;20.70;62.40
41533;DHT22;27262;-35.248;149.138;2022-10-01T10:02:49;20.70;62.20
41533;DHT22;27262;-35.248;149.138;2022-10-01T10:05:28;20.70;62.30
41533;DHT22;27262;-35.248;149.138;2022-10-01T10:08:48;20.70;62.20
41533;DHT22;27262;-35.248;149.138;2022-10-01T10:11:00;20.70;62.10
41533;DHT22;27262;-35.248;149.138;2022-10-01T10:14:10;20.70;62.20
41533;DHT22;27262;-35.248;149.138;2022-10-01T10:16:41;20.70;62.10
41533;DHT22;27262;-35.248;149.138;2022-10-01T10:19:26;20.70;62.10
41533;DHT22;27262;-35.248;149.138;2022-10-01T10:22:10;20.70;62.20
41533;DHT22;27262;-35.248;149.138;2022-10-01T10:24:41;20.70;62.00
41533;DHT22;27262;-35.248;149.138;2022-10-01T10:27:26;20.70;62.10
41533;DHT22;27262;-35.248;149.138;2022-10-01T10:30:05;20.70;62.00
41533;DHT22;27262;-35.248;149.138;2022-10-01T10:32:37;20.70;62.00
41533;DHT22;27262;-35.248;149.138;2022-10-01T10:35:14;20.70;62.00
41533;DHT22;27262;-35.248;149.138;2022-10-01T10:37:51;20.70;61.90
41533;DHT22;27262;-35.248;149.138;2022-10-01T10:40:24;20.70;61.90
41533;DHT22;27262;-35.248;149.138;2022-10-01T10:42:57;20.70;61.90
41533;DHT22;27262;-35.248;149.138;2022-10-01T10:45:36;20.70;62.00
41533;DHT22;27262;-35.248;149.138;2022-10-01T10:48:14;20.70;61.80
41533;DHT22;27262;-35.248;149.138;2022-10-01T10:50:47;20.70;61.90
41533;DHT22;27262;-35.248;149.138;2022-10-01T10:56:02;20.60;61.90
41533;DHT22;27262;-35.248;149.138;2022-10-01T10:58:34;20.70;61.80
41533;DHT22;27262;-35.248;149.138;2022-10-01T11:01:12;20.70;61.80
41533;DHT22;27262;-35.248;149.138;2022-10-01T11:03:53;20.70;61.70
41533;DHT22;27262;-35.248;149.138;2022-10-01T11:06:24;20.60;61.70
41533;DHT22;27262;-35.248;149.138;2022-10-01T11:09:03;20.60;61.70
41533;DHT22;27262;-35.248;149.138;2022-10-01T11:11:45;20.60;61.60
41533;DHT22;27262;-35.248;149.138;2022-10-01T11:14:30;20.60;61.50
41533;DHT22;27262;-35.248;149.138;2022-10-01T11:26:52;20.60;61.70
41533;DHT22;27262;-35.248;149.138;2022-10-01T11:29:52;20.60;61.80
41533;DHT22;27262;-35.248;149.138;2022-10-01T11:37:40;20.60;61.70
41533;DHT22;27262;-35.248;149.138;2022-10-01T11:40:26;20.60;61.90
41533;DHT22;27262;-35.248;149.138;2022-10-01T11:43:15;20.60;61.60
41533;DHT22;27262;-35.248;149.138;2022-10-01T11:45:51;20.60;61.70
41533;DHT22;27262;-35.248;149.138;2022-10-01T11:51:08;20.60;61.70
41533;DHT22;27262;-35.248;149.138;2022-10-01T11:53:48;20.60;61.60
41533;DHT22;27262;-35.248;149.138;2022-10-01T11:56:50;20.60;61.60
41533;DHT22;27262;-35.248;149.138;2022-10-01T12:00:25;20.60;61.40
41533;DHT22;27262;-35.248;149.138;2022-10-01T12:02:46;20.60;61.70
41533;DHT22;27262;-35.248;149.138;2022-10-01T12:05:26;20.50;61.60
41533;DHT22;27262;-35.248;149.138;2022-10-01T12:08:01;20.50;61.50
41533;DHT22;27262;-35.248;149.138;2022-10-01T12:10:37;20.50;61.50
41533;DHT22;27262;-35.248;149.138;2022-10-01T12:13:26;20.60;61.60
41533;DHT22;27262;-35.248;149.138;2022-10-01T12:19:01;20.60;61.50
41533;DHT22;27262;-35.248;149.138;2022-10-01T12:21:45;20.50;61.40
41533;DHT22;27262;-35.248;149.138;2022-10-01T12:24:32;20.50;61.30
41533;DHT22;27262;-35.248;149.138;2022-10-01T12:30:07;20.40;60.90
41533;DHT22;27262;-35.248;149.138;2022-10-01T12:33:00;20.40;61.10
41533;DHT22;27262;-35.248;149.138;2022-10-01T12:36:16;20.40;60.90
41533;DHT22;27262;-35.248;149.138;2022-10-01T12:39:03;20.30;60.90
41533;DHT22;27262;-35.248;149.138;2022-10-01T12:50:01;20.30;61.10
41533;DHT22;27262;-35.248;149.138;2022-10-01T13:04:17;20.20;61.20
41533;DHT22;27262;-35.248;149.138;2022-10-01T13:07:04;20.20;61.30
41533;DHT22;27262;-35.248;149.138;2022-10-01T13:09:47;20.20;61.30
41533;DHT22;27262;-35.248;149.138;2022-10-01T13:13:21;20.20;61.20
41533;DHT22;27262;-35.248;149.138;2022-10-01T13:15:38;20.10;61.20
41533;DHT22;27262;-35.248;149.138;2022-10-01T13:19:11;20.10;61.30
41533;DHT22;27262;-35.248;149.138;2022-10-01T13:22:03;20.10;61.20
41533;DHT22;27262;-35.248;149.138;2022-10-01T13:24:58;20.10;61.30
41533;DHT22;27262;-35.248;149.138;2022-10-01T13:30:59;20.10;61.40
41533;DHT22;27262;-35.248;149.138;2022-10-01T13:33:31;20.00;61.60
41533;DHT22;27262;-35.248;149.138;2022-10-01T13:36:05;20.00;61.60
41533;DHT22;27262;-35.248;149.138;2022-10-01T13:38:44;20.00;61.60
41533;DHT22;27262;-35.248;149.138;2022-10-01T13:41:23;20.00;61.60
41533;DHT22;27262;-35.248;149.138;2022-10-01T13:46:56;20.00;61.80
41533;DHT22;27262;-35.248;149.138;2022-10-01T13:49:29;19.90;61.70
41533;DHT22;27262;-35.248;149.138;2022-10-01T13:52:01;19.90;61.90
41533;DHT22;27262;-35.248;149.138;2022-10-01T13:54:48;19.90;61.90
41533;DHT22;27262;-35.248;149.138;2022-10-01T13:57:36;19.90;61.90
41533;DHT22;27262;-35.248;149.138;2022-10-01T14:03:21;19.90;62.00
41533;DHT22;27262;-35.248;149.138;2022-10-01T14:05:55;19.90;62.00
41533;DHT22;27262;-35.248;149.138;2022-10-01T14:08:39;19.90;62.20
41533;DHT22;27262;-35.248;149.138;2022-10-01T14:11:20;19.80;62.10
41533;DHT22;27262;-35.248;149.138;2022-10-01T14:14:25;19.80;62.10
41533;DHT22;27262;-35.248;149.138;2022-10-01T14:17:22;19.80;62.20
41533;DHT22;27262;-35.248;149.138;2022-10-01T14:19:54;19.80;62.20
41533;DHT22;27262;-35.248;149.138;2022-10-01T14:36:53;19.70;61.90
41533;DHT22;27262;-35.248;149.138;2022-10-01T14:39:28;19.70;62.10
41533;DHT22;27262;-35.248;149.138;2022-10-01T14:42:16;19.70;62.10
41533;DHT22;27262;-35.248;149.138;2022-10-01T14:44:47;19.70;62.10
41533;DHT22;27262;-35.248;149.138;2022-10-01T14:47:18;19.60;62.10
41533;DHT22;27262;-35.248;149.138;2022-10-01T14:49:49;19.60;62.10
41533;DHT22;27262;-35.248;149.138;2022-10-01T14:52:27;19.60;62.10
41533;DHT22;27262;-35.248;149.138;2022-10-01T14:55:04;19.60;62.10
41533;DHT22;27262;-35.248;149.138;2022-10-01T14:57:46;19.60;62.10
41533;DHT22;27262;-35.248;149.138;2022-10-01T15:00:20;19.60;62.20
41533;DHT22;27262;-35.248;149.138;2022-10-01T15:03:01;19.60;62.20
41533;DHT22;27262;-35.248;149.138;2022-10-01T15:05:34;19.60;62.20
41533;DHT22;27262;-35.248;149.138;2022-10-01T15:11:01;19.50;62.00
41533;DHT22;27262;-35.248;149.138;2022-10-01T15:13:36;19.50;62.10
41533;DHT22;27262;-35.248;149.138;2022-10-01T15:16:21;19.50;62.10
41533;DHT22;27262;-35.248;149.138;2022-10-01T15:19:01;19.50;62.10
41533;DHT22;27262;-35.248;149.138;2022-10-01T15:21:38;19.40;62.10
41533;DHT22;27262;-35.248;149.138;2022-10-01T15:24:18;19.40;62.20
41533;DHT22;27262;-35.248;149.138;2022-10-01T15:26:50;19.40;62.20
41533;DHT22;27262;-35.248;149.138;2022-10-01T15:29:21;19.40;62.30
41533;DHT22;27262;-35.248;149.138;2022-10-01T15:31:52;19.40;62.20
41533;DHT22;27262;-35.248;149.138;2022-10-01T15:34:26;19.30;62.10
41533;DHT22;27262;-35.248;149.138;2022-10-01T15:36:56;19.40;62.10
41533;DHT22;27262;-35.248;149.138;2022-10-01T15:39:38;19.30;62.80
41533;DHT22;27262;-35.248;149.138;2022-10-01T15:42:30;19.30;62.00
41533;DHT22;27262;-35.248;149.138;2022-10-01T15:47:39;19.30;62.10
41533;DHT22;27262;-35.248;149.138;2022-10-01T15:52:51;19.20;62.00
41533;DHT22;27262;-35.248;149.138;2022-10-01T15:58:09;19.20;62.00
41533;DHT22;27262;-35.248;149.138;2022-10-01T16:03:23;19.20;62.00
41533;DHT22;27262;-35.248;149.138;2022-10-01T16:05:56;19.10;61.90
41533;DHT22;27262;-35.248;149.138;2022-10-01T16:08:39;19.10;61.90
41533;DHT22;27262;-35.248;149.138;2022-10-01T16:11:19;19.10;61.90
41533;DHT22;27262;-35.248;149.138;2022-10-01T16:13:50;19.10;61.90
41533;DHT22;27262;-35.248;149.138;2022-10-01T16:16:28;19.10;61.90
41533;DHT22;27262;-35.248;149.138;2022-10-01T16:19:23;19.10;61.80
41533;DHT22;27262;-35.248;149.138;2022-10-01T16:22:31;19.00;61.70
41533;DHT22;27262;-35.248;149.138;2022-10-01T16:25:05;19.00;61.70
41533;DHT22;27262;-35.248;149.138;2022-10-01T16:28:02;19.00;61.90
41533;DHT22;27262;-35.248;149.138;2022-10-01T16:30:33;19.00;61.90
41533;DHT22;27262;-35.248;149.138;2022-10-01T16:33:03;19.00;61.90
41533;DHT22;27262;-35.248;149.138;2022-10-01T16:35:35;18.90;61.90
41533;DHT22;27262;-35.248;149.138;2022-10-01T16:38:08;18.90;61.80
41533;DHT22;27262;-35.248;149.138;2022-10-01T16:40:43;18.90;61.80
41533;DHT22;27262;-35.248;149.138;2022-10-01T16:43:21;18.90;61.80
41533;DHT22;27262;-35.248;149.138;2022-10-01T16:45:52;18.90;61.80
41533;DHT22;27262;-35.248;149.138;2022-10-01T16:48:22;18.90;61.80
41533;DHT22;27262;-35.248;149.138;2022-10-01T16:50:53;18.90;61.80
41533;DHT22;27262;-35.248;149.138;2022-10-01T16:53:27;18.90;61.80
41533;DHT22;27262;-35.248;149.138;2022-10-01T16:55:58;18.80;61.80
41533;DHT22;27262;-35.248;149.138;2022-10-01T16:58:28;18.80;61.90
41533;DHT22;27262;-35.248;149.138;2022-10-01T17:00:59;18.80;61.90
41533;DHT22;27262;-35.248;149.138;2022-10-01T17:03:35;18.80;62.60
41533;DHT22;27262;-35.248;149.138;2022-10-01T17:06:05;18.80;61.90
41533;DHT22;27262;-35.248;149.138;2022-10-01T17:08:36;18.80;61.90
41533;DHT22;27262;-35.248;149.138;2022-10-01T17:11:06;18.80;61.90
41533;DHT22;27262;-35.248;149.138;2022-10-01T17:13:39;18.80;61.90
41533;DHT22;27262;-35.248;149.138;2022-10-01T17:16:10;18.70;61.90
41533;DHT22;27262;-35.248;149.138;2022-10-01T17:18:41;18.70;61.90
41533;DHT22;27262;-35.248;149.138;2022-10-01T17:21:12;18.70;61.90
41533;DHT22;27262;-35.248;149.138;2022-10-01T17:23:43;18.70;61.90
41533;DHT22;27262;-35.248;149.138;2022-10-01T17:26:20;18.70;61.90
41533;DHT22;27262;-35.248;149.138;2022-10-01T17:28:50;18.70;61.90
41533;DHT22;27262;-35.248;149.138;2022-10-01T17:31:20;18.60;61.90
41533;DHT22;27262;-35.248;149.138;2022-10-01T17:33:50;18.60;61.80
41533;DHT22;27262;-35.248;149.138;2022-10-01T17:36:21;18.60;61.90
41533;DHT22;27262;-35.248;149.138;2022-10-01T17:38:51;18.60;61.80
41533;DHT22;27262;-35.248;149.138;2022-10-01T17:41:21;18.60;61.90